ADDS METAR Data INFO
IDs: Format: Raw Decoded Include TAF

Data at: 0316 UTC 20 Jul 2018

KMZG 200255Z AUTO 25011KT 10SM 29/25 A2992 RMK A01
KMZG 200235Z AUTO 24008G14KT 10SM 29/26 A2991 RMK A01
KMZG 200215Z AUTO 24007G14KT 10SM 29/25 A2991 RMK A01
KMZG 200155Z AUTO 25008KT 10SM CLR 29/25 A2991 RMK A01
KMZG 200135Z AUTO 24007KT 10SM CLR 29/26 A2991 RMK A01
KMZG 200115Z AUTO 25009KT 10SM CLR 29/25 A2991 RMK A01
KMZG 200055Z AUTO 24009KT 10SM CLR 29/25 A2991 RMK A01
KMZG 200035Z AUTO 24008KT 10SM CLR 30/25 A2991 RMK A01
KMZG 200015Z AUTO 24009KT 10SM FEW020 30/25 A2991 RMK A01
KMZG 192355Z AUTO 24007G12KT 10SM SCT020 30/25 A2991 RMK A01
KMZG 192335Z AUTO 24008KT 10SM FEW021 30/26 A2991 RMK A01
KMZG 192315Z AUTO 24009KT 10SM CLR 30/26 A2991 RMK A01
KMZG 192255Z AUTO 24005G11KT 10SM CLR 31/26 A2991 RMK A01
KMZG 192235Z AUTO 24008KT 10SM CLR 31/25 A2992 RMK A01
KMZG 192215Z AUTO VRB06KT 10SM CLR 31/25 A2992 RMK A01
KMZG 192155Z AUTO 25006KT 10SM CLR 31/26 A2992 RMK A01
KMZG 192135Z AUTO 27006KT 10SM CLR 30/25 A2993 RMK A01
KMZG 192115Z AUTO 26006KT 10SM CLR 30/25 A2993 RMK A01
KMZG 192055Z AUTO 27009KT 10SM CLR 31/25 A2993 RMK A01
KMZG 192035Z AUTO 27008KT 10SM CLR 31/25 A2993 RMK A01
KMZG 192015Z AUTO 27007G14KT 10SM CLR 31/25 A2994 RMK A01
KMZG 191955Z AUTO 26005KT 10SM CLR 31/25 A2994 RMK A01
KMZG 191935Z AUTO 27009KT 10SM CLR 31/25 A2995 RMK A01
KMZG 191915Z AUTO 27009G15KT CLR 30/25 A2995 RMK A01
KMZG 191855Z AUTO 27009KT 10SM CLR 30/25 A2995 RMK A01
KMZG 191835Z AUTO 27012KT 10SM CLR 30/25 A2996 RMK A01
KMZG 191815Z AUTO 28013KT 10SM CLR 30/25 A2997 RMK A01
KMZG 191755Z AUTO 28013KT 10SM CLR 30/25 A2997 RMK A01
KMZG 191735Z AUTO 29013KT 10SM CLR 30/25 A2997 RMK A01
KMZG 191715Z AUTO 28010KT 10SM CLR 30/25 A2998 RMK A01
KMZG 191655Z AUTO 29011KT 10SM CLR 30/25 A2998 RMK A01
KMZG 191635Z AUTO 28013KT 10SM CLR 30/25 A2998 RMK A01
KMZG 191615Z AUTO 28012KT 10SM CLR 30/25 A2998 RMK A01
KMZG 191555Z AUTO 28013KT 10SM CLR 30/25 A2997 RMK A01
KMZG 191535Z AUTO 28014KT 10SM CLR 30/25 A2997 RMK A01
KMZG 191515Z AUTO 29016KT 10SM CLR 30/25 A2997 RMK A01
KMZG 191455Z AUTO 29017KT 10SM CLR 29/24 A2998 RMK A01
KMZG 191435Z AUTO 30016KT 10SM CLR 29/25 A2998 RMK A01
KMZG 191415Z AUTO 29019KT 10SM CLR 29/24 A2997 RMK A01
KMZG 191355Z AUTO 28017KT 10SM CLR 29/24 A2997 RMK A01
KMZG 191335Z AUTO 29016KT 10SM CLR 29/24 A2997 RMK A01
KMZG 191315Z AUTO 29016KT 10SM FEW019 29/24 A2997 RMK A01
KMZG 191255Z AUTO 29018KT 10SM FEW019 29/25 A2996 RMK A01
KMZG 191235Z AUTO 29019KT 10SM FEW022 29/25 A2995 RMK A01
KMZG 191215Z AUTO 29020KT 10SM FEW020 FEW027 29/24 A2995 RMK A01
KMZG 191155Z AUTO 28021KT 10SM BKN020 BKN027 28/25 A2994 RMK A01
KMZG 191135Z AUTO 28019KT 29/25 A2994 RMK A01
KMZG 191115Z AUTO 28019KT 10SM 28/25 A2993 RMK A01
KMZG 191055Z AUTO 28020KT 10SM 28/25 A2993 RMK A01
KMZG 191035Z AUTO 28021KT 10SM 28/25 A2992 RMK A01
KMZG 191015Z AUTO 27016G21KT 10SM 28/25 A2992 RMK A01
KMZG 190955Z AUTO 27018KT 10SM 28/25 A2992 RMK A01
KMZG 190935Z AUTO 27010G20KT 10SM 28/25 A2992 RMK A01
KMZG 190915Z AUTO 27015KT 10SM 28/25 A2993 RMK A01
KMZG 190855Z AUTO 27011KT 10SM 28/25 A2992 RMK A01
KMZG 190835Z AUTO 26009G19KT 10SM 29/25 A2992 RMK A01
KMZG 190815Z AUTO 26008KT 10SM 29/25 A2993 RMK A01
KMZG 190755Z AUTO 26008G14KT 10SM FEW019 29/25 A2993 RMK A01
KMZG 190735Z AUTO 25008G15KT 10SM FEW019 29/25 A2994 RMK A01
KMZG 190715Z AUTO 26007G14KT 10SM CLR 29/25 A2994 RMK A01
KMZG 190655Z AUTO 25010KT 10SM CLR 29/25 A2994 RMK A01
KMZG 190635Z AUTO 26008G15KT 10SM FEW019 29/25 A2994 RMK A01
KMZG 190615Z AUTO 25009G14KT 10SM SCT019 29/25 A2995 RMK A01
KMZG 190555Z AUTO 25010G15KT 10SM FEW019 29/25 A2995 RMK A01
KMZG 190535Z AUTO 25011KT 10SM SCT018 29/25 A2996 RMK A01
KMZG 190515Z AUTO 25009G14KT 10SM 29/26 A2996 RMK A01
KMZG 190455Z AUTO 25008G14KT 10SM 29/26 A2995 RMK A01
KMZG 190435Z AUTO 24009KT 10SM 29/25 A2996 RMK A01
KMZG 190415Z AUTO 25009KT 10SM CLR 29/25 A2996 RMK A01
KMZG 190355Z AUTO 24008G13KT 10SM CLR 29/25 A2996 RMK A01
KMZG 190335Z AUTO 24010KT 10SM 29/25 A2996 RMK A01
KMZG 190315Z AUTO 24009KT 10SM 29/25 A2995 RMK A01
KMZG 190255Z AUTO 24008G13KT 10SM CLR 29/25 A2995 RMK A01
KMZG 190235Z AUTO 24007KT 10SM 29/26 A2995 RMK A01
KMZG 190215Z AUTO 25007G13KT 10SM 29/25 A2994 RMK A01
KMZG 190155Z AUTO 24008G14KT 10SM 29/25 A2994 RMK A01
KMZG 190135Z AUTO 24008G14KT 10SM SCT019 29/25 A2994 RMK A01
KMZG 190115Z AUTO 25010KT 10SM FEW019 29/25 A2993 RMK A01
KMZG 190055Z AUTO 24007G13KT 10SM FEW019 29/25 A2993 RMK A01
KMZG 190035Z AUTO 24006G12KT 10SM FEW018 29/25 A2993 RMK A01
KMZG 190015Z AUTO 25010KT 10SM CLR 30/25 A2993 RMK A01
KMZG 182355Z AUTO 25008G13KT 10SM CLR 30/25 A2993 RMK A01
KMZG 182335Z AUTO 25010KT 10SM CLR 30/25 A2993 RMK A01
KMZG 182315Z AUTO 25008KT 10SM FEW020 30/25 A2994 RMK A01
KMZG 182255Z AUTO 24007G12KT 10SM CLR 30/25 A2994 RMK A01
KMZG 182235Z AUTO 25009KT 10SM CLR 30/25 A2995 RMK A01
KMZG 182215Z AUTO 25006KT 10SM FEW019 31/25 A2995 RMK A01
KMZG 182155Z AUTO 6/28000006KT 10SM FEW019 30/25 A2996 RMK A01
KMZG 182135Z AUTO 25007KT 10SM CLR 30/25 A2996 RMK A01
KMZG 182115Z AUTO 26006KT 10SM CLR 30/25 A2997 RMK A01
KMZG 182055Z AUTO 27008KT 10SM CLR 30/25 A2997 RMK A01
KMZG 182035Z AUTO 26004G11KT 10SM CLR 31/25 A2998 RMK A01
KMZG 182015Z AUTO 27009KT 10SM CLR 31/25 A2998 RMK A01
KMZG 181955Z AUTO 27007KT 10SM CLR 31/25 A2999 RMK A01
KMZG 181935Z AUTO 28011KT 10SM CLR 31/25 A3000 RMK A01
KMZG 181915Z AUTO 29010KT 10SM FEW020 30/25 A3000 RMK A01
KMZG 181855Z AUTO 28011KT 10SM FEW020 30/25 A3001 RMK A01
KMZG 181835Z AUTO 29010KT 10SM CLR 30/25 A3001 RMK A01
KMZG 181815Z AUTO 29011KT 10SM CLR 30/25 A3001 RMK A01
KMZG 181755Z AUTO 28011KT 10SM FEW019 31/25 A3001 RMK A01
KMZG 181735Z AUTO 28009KT 10SM CLR 31/25 A3002 RMK A01
KMZG 181715Z AUTO 28012KT 10SM CLR 30/24 A3002 RMK A01
KMZG 181655Z AUTO 29012KT 10SM CLR 30/24 A3002 RMK A01
KMZG 181635Z AUTO 29012KT 10SM CLR 30/24 A3002 RMK A01
KMZG 181615Z AUTO 29014KT 10SM FEW021 30/24 A3003 RMK A01
KMZG 181555Z AUTO 28014KT 10SM CLR 30/24 A3002 RMK A01
KMZG 181535Z AUTO 28015KT 10SM CLR 30/24 A3002 RMK A01